Time;durP1;ratioP1;P1;durP2;ratioP2;P2;SDS_P1;SDS_P2;PMS_P1;PMS_P2;Temp;Humidity;BMP_temperature;BMP_pressure;BME280_temperature;BME280_humidity;BME280_pressure;Samples;Min_cycle;Max_cycle;Signal;HPM_P1;HPM_P2
2023/12/12 00:00:08;;;;;;;18.60;3.17;;;;;;;8.63;100.00;99798.09;5024153;28;20045;-72
2023/12/12 00:02:39;;;;;;;16.60;3.38;;;;;;;8.63;100.00;99795.44;5006088;28;20582;-70
2023/12/12 00:05:17;;;;;;;18.90;3.22;;;;;;;8.70;100.00;99802.13;5016835;28;20331;-70
2023/12/12 00:07:49;;;;;;;19.13;3.28;;;;;;;8.74;100.00;99794.91;5028783;28;20087;-71
2023/12/12 00:10:17;;;;;;;15.88;3.13;;;;;;;8.78;100.00;99799.97;4995228;28;20056;-71
2023/12/12 00:12:46;;;;;;;21.83;4.00;;;;;;;8.84;100.00;99797.94;5028471;28;20045;-71
2023/12/12 00:15:18;;;;;;;17.77;3.03;;;;;;;8.83;100.00;99788.31;5019491;28;20498;-72
2023/12/12 00:17:46;;;;;;;20.75;3.10;;;;;;;8.85;100.00;99789.94;5028165;28;20504;-72
2023/12/12 00:20:15;;;;;;;17.77;3.72;;;;;;;8.90;100.00;99793.22;5025411;28;20049;-71
2023/12/12 00:22:45;;;;;;;15.77;3.53;;;;;;;8.95;100.00;99790.38;5025977;28;20136;-70
2023/12/12 00:25:15;;;;;;;20.33;3.25;;;;;;;8.89;100.00;99780.09;5022702;28;20057;-71
2023/12/12 00:27:45;;;;;;;13.60;2.80;;;;;;;8.89;100.00;99788.03;5032764;28;20045;-70
2023/12/12 00:30:14;;;;;;;17.80;3.55;;;;;;;8.84;100.00;99782.09;5018695;28;20068;-72
2023/12/12 00:32:44;;;;;;;19.33;3.10;;;;;;;8.82;100.00;99778.69;5037497;28;20046;-72
2023/12/12 00:35:12;;;;;;;19.05;3.58;;;;;;;8.67;100.00;99765.31;5027399;28;20049;-70
2023/12/12 00:37:40;;;;;;;20.98;3.63;;;;;;;8.66;100.00;99781.22;5026426;28;20486;-72
2023/12/12 00:40:12;;;;;;;23.35;3.70;;;;;;;8.69;100.00;99791.63;5027010;28;20068;-71
2023/12/12 00:42:41;;;;;;;19.83;3.17;;;;;;;8.64;100.00;99791.03;5027777;28;20072;-71
2023/12/12 00:45:11;;;;;;;15.43;3.35;;;;;;;8.65;100.00;99801.50;5019068;28;20049;-70
2023/12/12 00:47:39;;;;;;;18.25;3.13;;;;;;;8.66;100.00;99797.91;5023867;28;20057;-72
2023/12/12 00:50:11;;;;;;;20.67;3.65;;;;;;;8.62;100.00;99783.19;5038506;28;20490;-72
2023/12/12 00:52:41;;;;;;;16.33;2.72;;;;;;;8.72;100.00;99787.06;5025806;28;20059;-71
2023/12/12 00:55:11;;;;;;;16.02;2.97;;;;;;;8.70;100.00;99783.63;5017721;28;20046;-71
2023/12/12 00:57:39;;;;;;;14.95;3.17;;;;;;;8.57;100.00;99763.22;5026180;28;20049;-72
2023/12/12 01:00:09;;;;;;;18.02;3.15;;;;;;;8.65;100.00;99784.81;5027340;28;20528;-70
2023/12/12 01:02:37;;;;;;;16.63;3.00;;;;;;;8.57;100.00;99776.41;5027580;28;20053;-70
2023/12/12 01:05:08;;;;;;;18.38;3.03;;;;;;;8.61;100.00;99781.47;5020995;28;20041;-71
2023/12/12 01:07:36;;;;;;;15.95;2.63;;;;;;;8.58;100.00;99780.75;5028704;28;20057;-71
2023/12/12 01:10:05;;;;;;;19.27;3.55;;;;;;;8.58;100.00;99775.47;5013966;28;20041;-71
2023/12/12 01:12:35;;;;;;;19.42;3.70;;;;;;;8.58;100.00;99784.25;5031391;28;20077;-71
2023/12/12 01:15:04;;;;;;;20.83;3.58;;;;;;;8.56;100.00;99782.59;5020486;28;20068;-71
2023/12/12 01:17:32;;;;;;;24.58;3.95;;;;;;;8.55;100.00;99789.66;5022951;28;20069;-72
2023/12/12 01:20:07;;;;;;;17.75;3.78;;;;;;;8.55;100.00;99787.03;5024859;28;20580;-72
2023/12/12 01:22:37;;;;;;;23.45;3.45;;;;;;;8.56;100.00;99783.47;5028945;28;20048;-72
2023/12/12 01:25:06;;;;;;;19.65;3.53;;;;;;;8.56;100.00;99779.97;5022718;28;20050;-71
2023/12/12 01:27:34;;;;;;;17.38;3.25;;;;;;;8.61;100.00;99784.09;5026285;28;20070;-72
2023/12/12 01:30:02;;;;;;;22.25;3.85;;;;;;;8.59;100.00;99767.47;5029785;28;20051;-72
2023/12/12 01:32:30;;;;;;;22.15;3.75;;;;;;;8.64;100.00;99770.75;5027621;28;20068;-72
2023/12/12 01:34:59;;;;;;;19.17;3.70;;;;;;;8.66;100.00;99762.75;5028649;28;20521;-71
2023/12/12 01:37:28;;;;;;;18.60;4.15;;;;;;;8.67;100.00;99759.19;5027331;28;20063;-71
2023/12/12 01:40:02;;;;;;;16.90;3.47;;;;;;;8.68;100.00;99750.31;5027458;28;20457;-72
2023/12/12 01:42:33;;;;;;;19.52;3.50;;;;;;;8.72;100.00;99765.94;5028272;28;20049;-74
2023/12/12 01:45:02;;;;;;;17.52;3.88;;;;;;;8.70;100.00;99774.88;5026802;28;20123;-70
2023/12/12 01:47:31;;;;;;;20.92;3.63;;;;;;;8.73;100.00;99772.09;5023236;28;20049;-72
2023/12/12 01:50:01;;;;;;;15.27;2.93;;;;;;;8.72;100.00;99773.00;5028142;28;20045;-71
2023/12/12 01:52:31;;;;;;;15.65;3.25;;;;;;;8.66;100.00;99755.69;5029411;28;20059;-72
2023/12/12 01:55:01;;;;;;;19.67;3.30;;;;;;;8.69;100.00;99758.19;5026562;28;20049;-71
2023/12/12 01:57:29;;;;;;;14.25;3.50;;;;;;;8.72;100.00;99767.72;5009736;28;20045;-71
2023/12/12 01:59:58;;;;;;;17.92;3.22;;;;;;;8.68;100.00;99756.47;5025972;28;20456;-72
2023/12/12 02:02:26;;;;;;;20.35;3.10;;;;;;;8.66;100.00;99749.53;5028382;28;20055;-72
2023/12/12 02:04:56;;;;;;;18.42;3.13;;;;;;;8.71;100.00;99766.03;5024807;28;20769;-71
2023/12/12 02:07:25;;;;;;;16.80;3.42;;;;;;;8.65;100.00;99751.34;5010117;28;20068;-71
2023/12/12 02:09:55;;;;;;;26.45;3.85;;;;;;;8.66;100.00;99746.91;5030032;28;20045;-70
2023/12/12 02:12:31;;;;;;;19.58;2.92;;;;;;;8.72;100.00;99762.44;5014704;28;20049;-71
2023/12/12 02:14:59;;;;;;;17.23;3.53;;;;;;;8.65;100.00;99750.50;5026685;28;20311;-72
2023/12/12 02:17:29;;;;;;;16.40;3.33;;;;;;;8.68;100.00;99751.19;5035625;28;20068;-72
2023/12/12 02:19:58;;;;;;;12.20;2.90;;;;;;;8.73;100.00;99759.75;5030434;28;20079;-71
2023/12/12 02:22:27;;;;;;;17.95;3.30;;;;;;;8.72;100.00;99760.66;5012161;28;20140;-72
2023/12/12 02:24:55;;;;;;;17.45;3.70;;;;;;;8.69;100.00;99767.88;5027667;28;20053;-73
2023/12/12 02:27:23;;;;;;;18.77;3.63;;;;;;;8.67;100.00;99761.81;5034727;28;20112;-71
2023/12/12 02:29:51;;;;;;;19.88;3.88;;;;;;;8.65;100.00;99764.56;5028058;28;20467;-71
2023/12/12 02:32:19;;;;;;;21.55;3.78;;;;;;;8.65;100.00;99769.84;5028513;28;20095;-72
2023/12/12 02:34:49;;;;;;;18.63;3.50;;;;;;;8.65;100.00;99755.78;5026338;28;20128;-72
2023/12/12 02:37:18;;;;;;;22.42;4.05;;;;;;;8.63;100.00;99755.00;5020015;28;20120;-72
2023/12/12 02:39:50;;;;;;;18.27;3.37;;;;;;;8.58;100.00;99754.34;5026509;28;20049;-71
2023/12/12 02:42:21;;;;;;;24.00;3.72;;;;;;;8.58;100.00;99749.94;5030050;28;20042;-71
2023/12/12 02:44:48;;;;;;;20.55;2.97;;;;;;;8.54;100.00;99748.38;5024951;28;20046;-72
2023/12/12 02:47:17;;;;;;;17.90;3.78;;;;;;;8.56;100.00;99758.84;5003696;28;20048;-71
2023/12/12 02:49:48;;;;;;;17.85;2.97;;;;;;;8.53;100.00;99759.00;5027895;28;20049;-71
2023/12/12 02:52:17;;;;;;;20.98;3.15;;;;;;;8.54;100.00;99760.72;5014784;28;20103;-72
2023/12/12 02:54:47;;;;;;;19.25;3.63;;;;;;;8.54;100.00;99758.94;5010551;28;20139;-71
2023/12/12 02:57:16;;;;;;;19.75;3.53;;;;;;;8.45;100.00;99743.56;5018571;28;21533;-71
2023/12/12 02:59:44;;;;;;;20.83;3.42;;;;;;;8.55;100.00;99763.28;5011066;28;20041;-69
2023/12/12 03:02:13;;;;;;;17.05;3.28;;;;;;;8.56;100.00;99751.78;5012945;28;20449;-72
2023/12/12 03:04:44;;;;;;;18.40;3.40;;;;;;;8.51;100.00;99745.88;5022832;28;20053;-72
2023/12/12 03:07:12;;;;;;;18.00;3.88;;;;;;;8.50;100.00;99752.09;5022600;28;20065;-71
2023/12/12 03:09:40;;;;;;;28.27;4.40;;;;;;;8.44;100.00;99755.91;5015789;28;20489;-70
2023/12/12 03:12:09;;;;;;;19.02;2.85;;;;;;;8.40;100.00;99758.75;5032597;28;20490;-71
2023/12/12 03:14:39;;;;;;;18.95;3.28;;;;;;;8.35;100.00;99768.66;5024129;28;20037;-71
2023/12/12 03:17:10;;;;;;;19.98;4.25;;;;;;;8.34;100.00;99770.44;5019213;28;20049;-73
2023/12/12 03:19:38;;;;;;;15.80;2.95;;;;;;;8.40;100.00;99766.66;5030468;28;20049;-70
2023/12/12 03:22:07;;;;;;;17.75;3.47;;;;;;;8.31;100.00;99757.38;5028403;28;20111;-71
2023/12/12 03:24:35;;;;;;;17.52;3.80;;;;;;;8.32;100.00;99753.00;5028199;28;20088;-71
2023/12/12 03:27:05;;;;;;;14.52;3.22;;;;;;;8.31;100.00;99762.66;5016988;28;20136;-72
2023/12/12 03:29:34;;;;;;;22.50;3.65;;;;;;;8.20;100.00;99754.38;5026424;28;20133;-72
2023/12/12 03:32:03;;;;;;;18.63;3.38;;;;;;;8.18;100.00;99765.97;5024026;28;20498;-71
2023/12/12 03:34:31;;;;;;;16.87;3.37;;;;;;;8.16;100.00;99762.53;5024099;28;20569;-71
2023/12/12 03:36:59;;;;;;;18.48;3.35;;;;;;;8.20;100.00;99772.84;5016770;28;20046;-71
2023/12/12 03:39:28;;;;;;;14.95;3.20;;;;;;;8.14;100.00;99754.69;5021848;28;20721;-70
2023/12/12 03:41:56;;;;;;;17.38;3.50;;;;;;;8.16;100.00;99767.81;5024441;28;20049;-71
2023/12/12 03:44:25;;;;;;;17.25;2.90;;;;;;;8.27;100.00;99782.19;5020518;28;24588;-73
2023/12/12 03:46:55;;;;;;;27.10;3.72;;;;;;;8.24;100.00;99777.06;5012374;28;20229;-71
2023/12/12 03:49:24;;;;;;;18.33;4.00;;;;;;;8.20;100.00;99758.78;5024644;28;20057;-70
2023/12/12 03:51:52;;;;;;;14.98;3.30;;;;;;;8.33;100.00;99776.66;5028269;28;20051;-71
2023/12/12 03:54:19;;;;;;;17.50;3.28;;;;;;;8.27;100.00;99762.88;5008831;28;20053;-70
2023/12/12 03:56:47;;;;;;;15.00;3.53;;;;;;;8.36;100.00;99773.00;5010830;28;20084;-70
2023/12/12 03:59:15;;;;;;;21.15;3.17;;;;;;;8.42;100.00;99776.22;5024241;28;20037;-72
2023/12/12 04:01:47;;;;;;;20.77;4.95;;;;;;;8.46;100.00;99771.66;5027091;28;20049;-72
2023/12/12 04:04:18;;;;;;;19.00;4.20;;;;;;;8.41;100.00;99769.22;5025589;28;20041;-72
2023/12/12 04:06:49;;;;;;;15.13;3.10;;;;;;;8.40;100.00;99767.50;5016880;28;20033;-71
2023/12/12 04:09:18;;;;;;;14.10;3.30;;;;;;;8.40;100.00;99767.50;5029372;28;20072;-71
2023/12/12 04:11:48;;;;;;;21.77;3.88;;;;;;;8.38;100.00;99757.97;5012079;28;20099;-71
2023/12/12 04:14:17;;;;;;;20.92;3.63;;;;;;;8.40;100.00;99764.03;5027456;28;20103;-72
2023/12/12 04:16:46;;;;;;;21.48;4.43;;;;;;;8.41;100.00;99758.66;5011934;28;20053;-71
2023/12/12 04:19:14;;;;;;;21.98;4.00;;;;;;;8.42;100.00;99752.47;5014345;28;20057;-73
2023/12/12 04:21:44;;;;;;;18.88;3.08;;;;;;;8.44;100.00;99760.31;4999343;28;20682;-72
2023/12/12 04:24:15;;;;;;;15.95;3.58;;;;;;;8.38;100.00;99742.13;5023326;28;20049;-74
2023/12/12 04:26:44;;;;;;;16.20;3.38;;;;;;;8.47;100.00;99761.97;5019649;28;20666;-71
2023/12/12 04:29:14;;;;;;;17.90;2.75;;;;;;;8.47;100.00;99751.41;5028361;28;20049;-72
2023/12/12 04:31:43;;;;;;;13.40;3.15;;;;;;;8.50;100.00;99754.72;5024421;28;20603;-72
2023/12/12 04:34:11;;;;;;;18.65;3.75;;;;;;;8.48;100.00;99732.00;5011060;28;20042;-71
2023/12/12 04:36:41;;;;;;;19.90;3.55;;;;;;;8.49;100.00;99744.28;5016280;28;22676;-70
2023/12/12 04:39:12;;;;;;;16.50;3.08;;;;;;;8.42;100.00;99739.28;5026637;28;20414;-72
2023/12/12 04:41:42;;;;;;;18.20;3.53;;;;;;;8.40;100.00;99733.22;5025733;28;20045;-72
2023/12/12 04:44:10;;;;;;;16.92;3.53;;;;;;;8.40;100.00;99732.34;5026457;28;20107;-71
2023/12/12 04:46:39;;;;;;;15.85;3.20;;;;;;;8.35;100.00;99731.72;5017485;28;20128;-71
2023/12/12 04:49:09;;;;;;;;;;;;;;;8.44;100.00;99720.75;5026990;28;20044;-73
2023/12/12 04:51:38;;;;;;;21.23;3.67;;;;;;;8.38;100.00;99728.94;5024537;28;20442;-73
2023/12/12 04:54:07;;;;;;;21.67;3.55;;;;;;;8.33;100.00;99725.69;5026935;28;20413;-71
2023/12/12 04:56:37;;;;;;;18.65;3.47;;;;;;;8.25;100.00;99719.88;4995822;28;20080;-71
2023/12/12 04:59:07;;;;;;;15.23;3.80;;;;;;;8.14;100.00;99714.28;5018082;28;20068;-71
2023/12/12 05:01:36;;;;;;;15.57;3.13;;;;;;;8.09;100.00;99717.97;5028749;28;20052;-73
2023/12/12 05:04:04;;;;;;;16.15;3.60;;;;;;;8.09;100.00;99714.47;5010908;28;20049;-71
2023/12/12 05:06:32;;;;;;;18.50;3.85;;;;;;;8.05;100.00;99707.63;5007350;28;20144;-71
2023/12/12 05:09:01;;;;;;;22.77;3.58;;;;;;;7.85;100.00;99698.06;5040005;28;20485;-70
2023/12/12 05:11:32;;;;;;;22.67;3.83;;;;;;;7.85;100.00;99705.09;5034139;28;20056;-73
2023/12/12 05:14:00;;;;;;;17.73;3.92;;;;;;;7.92;100.00;99698.59;5009809;28;20565;-70
2023/12/12 05:16:29;;;;;;;22.08;3.75;;;;;;;8.00;100.00;99710.50;5020777;28;20123;-72
2023/12/12 05:19:02;;;;;;;17.45;3.58;;;;;;;7.92;100.00;99701.25;5024441;28;20064;-72
2023/12/12 05:21:31;;;;;;;19.38;3.80;;;;;;;7.84;100.00;99714.81;5028344;28;20057;-72
2023/12/12 05:24:06;;;;;;;17.55;3.45;;;;;;;7.69;100.00;99705.81;5014342;28;20046;-71
2023/12/12 05:26:42;;;;;;;20.30;4.32;;;;;;;7.54;100.00;99687.22;5044406;28;20051;-73
2023/12/12 05:29:10;;;;;;;21.17;4.15;;;;;;;7.52;100.00;99707.50;5030377;28;20124;-72
2023/12/12 05:31:41;;;;;;;14.70;3.10;;;;;;;7.40;100.00;99699.22;5034770;28;20482;-72
2023/12/12 05:34:10;;;;;;;21.65;4.03;;;;;;;7.28;100.00;99705.03;5035149;28;20048;-72
2023/12/12 05:36:38;;;;;;;27.02;4.50;;;;;;;7.28;100.00;99704.19;5028651;28;20088;-72
2023/12/12 05:39:09;;;;;;;19.42;4.32;;;;;;;7.31;100.00;99707.53;5010855;28;20048;-73
2023/12/12 05:41:39;;;;;;;24.27;3.72;;;;;;;7.37;100.00;99703.78;5025542;28;20139;-70
2023/12/12 05:44:07;;;;;;;18.90;3.63;;;;;;;7.31;100.00;99712.81;5027002;28;20048;-73
2023/12/12 05:46:41;;;;;;;24.50;4.15;;;;;;;7.24;100.00;99710.53;5028824;28;20985;-71
2023/12/12 05:49:10;;;;;;;17.65;4.03;;;;;;;7.19;100.00;99702.81;5027343;28;20064;-71
2023/12/12 05:51:39;;;;;;;22.20;4.20;;;;;;;7.17;100.00;99694.13;5028549;28;20054;-71
2023/12/12 05:54:11;;;;;;;21.63;3.65;;;;;;;7.14;100.00;99696.91;4993724;28;20038;-72
2023/12/12 05:56:42;;;;;;;15.63;3.72;;;;;;;7.12;100.00;99700.53;5006272;28;20053;-72
2023/12/12 05:59:14;;;;;;;;;;;;;;;7.06;100.00;99699.03;5021099;28;20049;-71
2023/12/12 06:01:45;;;;;;;18.88;3.92;;;;;;;7.00;100.00;99694.88;5030418;28;19964;-73
2023/12/12 06:04:14;;;;;;;16.33;4.22;;;;;;;6.96;100.00;99698.56;5029371;28;20041;-74
2023/12/12 06:06:42;;;;;;;20.45;4.45;;;;;;;6.94;100.00;99694.28;5026797;28;20041;-71
2023/12/12 06:09:16;;;;;;;18.15;4.65;;;;;;;6.92;100.00;99701.41;5021544;28;20172;-72
2023/12/12 06:11:48;;;;;;;16.10;4.07;;;;;;;6.90;100.00;99701.47;5025112;28;20497;-72
2023/12/12 06:14:17;;;;;;;20.88;3.92;;;;;;;6.87;100.00;99685.81;5027000;28;20107;-71
2023/12/12 06:16:47;;;;;;;22.67;4.43;;;;;;;6.90;100.00;99684.81;5024696;28;20054;-69
2023/12/12 06:19:17;;;;;;;27.20;4.57;;;;;;;6.96;100.00;99692.44;5025118;28;20045;-72
2023/12/12 06:21:51;;;;;;;15.63;4.75;;;;;;;6.91;100.00;99679.50;5032782;28;20053;-73
2023/12/12 06:24:22;;;;;;;22.55;4.55;;;;;;;6.96;100.00;99688.03;5031126;28;20065;-72
2023/12/12 06:26:50;;;;;;;24.25;4.82;;;;;;;6.97;100.00;99680.97;5028491;28;20439;-70
2023/12/12 06:29:18;;;;;;;27.90;5.15;;;;;;;7.06;100.00;99679.75;5024313;28;20111;-72
2023/12/12 06:31:51;;;;;;;26.38;4.65;;;;;;;7.11;100.00;99678.59;5026529;28;20068;-69
2023/12/12 06:34:19;;;;;;;17.60;5.07;;;;;;;7.11;100.00;99677.75;5027525;28;20046;-71
2023/12/12 06:36:47;;;;;;;24.02;5.38;;;;;;;7.15;100.00;99677.53;5010706;28;20393;-73
2023/12/12 06:39:15;;;;;;;21.00;4.78;;;;;;;7.19;100.00;99675.63;5023688;28;20053;-72
2023/12/12 06:41:47;;;;;;;24.08;4.95;;;;;;;7.14;100.00;99661.81;5028053;28;20073;-72
2023/12/12 06:44:16;;;;;;;21.73;5.63;;;;;;;7.13;100.00;99679.38;5026153;28;20643;-72
2023/12/12 06:46:45;;;;;;;22.85;4.90;;;;;;;7.17;100.00;99683.59;5026650;28;20050;-73
2023/12/12 06:49:19;;;;;;;30.50;4.70;;;;;;;7.24;100.00;99674.50;5022967;28;20107;-73
2023/12/12 06:51:47;;;;;;;22.42;5.60;;;;;;;7.28;100.00;99675.22;5027333;28;20049;-73
2023/12/12 06:54:17;;;;;;;23.50;5.43;;;;;;;7.30;100.00;99682.13;5024394;28;20045;-72
2023/12/12 06:56:45;;;;;;;27.45;5.32;;;;;;;7.31;100.00;99668.03;5043875;28;20136;-72
2023/12/12 06:59:14;;;;;;;24.23;5.03;;;;;;;7.28;100.00;99667.31;5002848;28;20051;-72
2023/12/12 07:01:42;;;;;;;21.55;5.35;;;;;;;7.14;100.00;99660.03;5011844;28;20050;-73
2023/12/12 07:04:12;;;;;;;24.55;4.97;;;;;;;7.11;100.00;99651.41;5029736;28;20042;-74
2023/12/12 07:06:44;;;;;;;24.95;5.55;;;;;;;7.12;100.00;99672.41;5020638;28;20053;-69
2023/12/12 07:09:12;;;;;;;21.13;4.70;;;;;;;7.16;100.00;99663.47;5026944;28;20048;-72
2023/12/12 07:11:44;;;;;;;24.38;4.68;;;;;;;7.09;100.00;99669.91;5026534;28;20706;-74
2023/12/12 07:14:12;;;;;;;23.40;5.70;;;;;;;6.81;100.00;99629.94;5029289;28;20046;-70
2023/12/12 07:16:41;;;;;;;21.08;4.88;;;;;;;7.00;100.00;99672.97;5027647;28;20060;-74
2023/12/12 07:19:11;;;;;;;20.90;5.33;;;;;;;6.88;100.00;99670.88;5013955;28;20044;-72
2023/12/12 07:21:41;;;;;;;19.83;4.53;;;;;;;6.89;100.00;99668.19;5032815;28;20042;-72
2023/12/12 07:24:14;;;;;;;18.88;4.57;;;;;;;6.86;100.00;99664.81;5016202;28;20061;-71
2023/12/12 07:26:52;;;;;;;19.45;4.70;;;;;;;6.78;100.00;99659.88;5041624;28;20045;-71
2023/12/12 07:29:23;;;;;;;16.80;4.88;;;;;;;6.83;100.00;99671.06;5020973;28;20068;-72
2023/12/12 07:31:51;;;;;;;18.08;5.05;;;;;;;6.73;100.00;99653.97;5025509;28;20049;-71
2023/12/12 07:34:22;;;;;;;23.08;5.72;;;;;;;6.94;100.00;99673.22;5014723;28;20037;-73
2023/12/12 07:36:52;;;;;;;26.98;6.07;;;;;;;7.04;100.00;99664.88;5027113;28;20053;-72
2023/12/12 07:39:23;;;;;;;31.05;5.68;;;;;;;7.21;100.00;99661.50;5001216;28;20134;-72
2023/12/12 07:41:51;;;;;;;22.67;5.20;;;;;;;7.22;100.00;99651.81;5026139;28;20392;-70
2023/12/12 07:44:23;;;;;;;26.35;5.88;;;;;;;7.30;100.00;99653.16;5029653;28;20038;-71
2023/12/12 07:46:52;;;;;;;19.80;5.20;;;;;;;7.33;100.00;99654.81;5029521;28;20095;-71
2023/12/12 07:49:23;;;;;;;20.17;5.38;;;;;;;7.34;100.00;99641.56;5023094;28;20060;-71
2023/12/12 07:51:57;;;;;;;27.20;6.45;;;;;;;7.34;100.00;99649.47;5030761;28;20064;-71
2023/12/12 07:54:26;;;;;;;28.95;5.97;;;;;;;7.32;100.00;99640.78;5017391;28;20064;-70
2023/12/12 07:56:56;;;;;;;27.05;5.65;;;;;;;7.23;100.00;99633.31;5026559;28;20493;-69
2023/12/12 07:59:24;;;;;;;20.48;5.20;;;;;;;7.27;100.00;99640.13;5008711;28;20121;-73
2023/12/12 08:01:52;;;;;;;19.20;4.95;;;;;;;7.26;100.00;99640.19;5031065;28;20056;-72
2023/12/12 08:04:22;;;;;;;23.45;5.65;;;;;;;7.25;100.00;99646.38;5048837;28;20057;-70
2023/12/12 08:06:50;;;;;;;23.95;5.82;;;;;;;7.18;100.00;99643.19;5041266;28;20457;-72
2023/12/12 08:09:23;;;;;;;25.23;7.00;;;;;;;7.19;100.00;99646.69;5020223;28;20041;-70
2023/12/12 08:11:53;;;;;;;19.08;5.35;;;;;;;7.24;100.00;99653.44;5025495;28;20069;-72
2023/12/12 08:14:22;;;;;;;19.88;5.75;;;;;;;7.25;100.00;99655.13;5007778;28;20049;-72
2023/12/12 08:16:50;;;;;;;22.35;5.93;;;;;;;7.28;100.00;99652.38;5025958;28;20088;-71
2023/12/12 08:19:18;;;;;;;28.30;6.88;;;;;;;7.32;100.00;99653.09;5020432;28;20055;-69
2023/12/12 08:21:48;;;;;;;23.55;6.55;;;;;;;7.32;100.00;99658.34;5028035;28;20061;-70
2023/12/12 08:24:18;;;;;;;23.35;6.75;;;;;;;7.36;100.00;99649.41;5027042;28;20041;-71
2023/12/12 08:26:49;;;;;;;22.60;6.47;;;;;;;7.46;100.00;99661.22;5034061;28;20138;-71
2023/12/12 08:29:18;;;;;;;24.13;6.35;;;;;;;7.52;100.00;99647.78;5016841;28;20103;-70
2023/12/12 08:31:47;;;;;;;23.08;6.32;;;;;;;7.63;100.00;99658.66;5009090;28;20052;-68
2023/12/12 08:34:16;;;;;;;22.67;6.22;;;;;;;7.69;100.00;99668.06;5026178;28;20042;-68
2023/12/12 08:36:45;;;;;;;24.13;7.68;;;;;;;7.76;100.00;99664.22;5027005;28;20073;-71
2023/12/12 08:39:15;;;;;;;22.60;7.15;;;;;;;7.82;100.00;99660.44;5022336;28;20056;-71
2023/12/12 08:41:43;;;;;;;26.73;7.38;;;;;;;7.84;100.00;99654.16;5031832;28;20288;-71
2023/12/12 08:44:11;;;;;;;27.00;7.00;;;;;;;7.88;100.00;99662.75;5014121;28;20038;-72
2023/12/12 08:46:43;;;;;;;23.80;6.93;;;;;;;7.82;100.00;99656.03;5026293;28;20570;-71
2023/12/12 08:49:15;;;;;;;33.30;7.50;;;;;;;7.84;100.00;99651.53;5019967;28;20049;-69
2023/12/12 08:51:47;;;;;;;22.35;6.38;;;;;;;7.84;100.00;99648.91;5027792;28;20051;-70
2023/12/12 08:54:17;;;;;;;21.33;6.68;;;;;;;7.85;100.00;99649.75;5036304;28;20052;-69
2023/12/12 08:56:52;;;;;;;27.77;6.88;;;;;;;7.87;100.00;99647.91;5033158;28;20553;-69
2023/12/12 08:59:22;;;;;;;21.33;6.78;;;;;;;7.89;100.00;99648.66;5023554;28;20051;-71
2023/12/12 09:01:51;;;;;;;21.65;6.30;;;;;;;7.90;100.00;99643.31;5028932;28;20057;-70
2023/12/12 09:04:21;;;;;;;25.33;6.68;;;;;;;7.88;100.00;99639.91;5032610;28;20048;-69
2023/12/12 09:06:50;;;;;;;23.15;6.80;;;;;;;7.85;100.00;99647.13;5035889;28;20065;-69
2023/12/12 09:09:18;;;;;;;21.92;6.35;;;;;;;7.71;100.00;99629.31;5029198;28;20046;-71
2023/12/12 09:11:47;;;;;;;21.80;7.03;;;;;;;7.64;100.00;99633.16;5016827;28;20142;-71
2023/12/12 09:14:17;;;;;;;28.63;6.60;;;;;;;7.57;100.00;99629.09;5033891;28;20042;-73
2023/12/12 09:16:45;;;;;;;29.00;7.50;;;;;;;7.46;100.00;99618.22;5003512;28;20045;-72
2023/12/12 09:19:16;;;;;;;21.55;6.65;;;;;;;7.38;100.00;99608.91;5025921;28;20053;-71
2023/12/12 09:21:48;;;;;;;25.58;7.25;;;;;;;7.34;100.00;99599.44;5035395;28;20103;-71
2023/12/12 09:24:17;;;;;;;25.88;6.32;;;;;;;7.32;100.00;99601.28;5035746;28;20045;-71
2023/12/12 09:26:46;;;;;;;30.17;6.97;;;;;;;7.30;100.00;99597.84;5042571;28;20064;-71
2023/12/12 09:29:15;;;;;;;29.20;7.55;;;;;;;7.28;100.00;99577.78;5034421;28;20069;-69
2023/12/12 09:31:43;;;;;;;30.20;6.90;;;;;;;7.35;100.00;99571.31;5039266;28;20081;-72
2023/12/12 09:34:11;;;;;;;21.70;6.80;;;;;;;7.43;100.00;99563.03;5054582;28;20049;-69
2023/12/12 09:36:41;;;;;;;24.73;7.22;;;;;;;7.45;100.00;99564.69;5044305;28;20057;-69
2023/12/12 09:39:10;;;;;;;23.00;7.50;;;;;;;7.43;100.00;99553.34;5040590;28;20123;-68
2023/12/12 09:41:39;;;;;;;27.40;7.40;;;;;;;7.36;100.00;99550.19;5048513;28;20109;-70
2023/12/12 09:44:12;;;;;;;26.95;8.30;;;;;;;7.27;100.00;99550.59;5058725;28;20670;-71
2023/12/12 09:46:43;;;;;;;23.20;7.32;;;;;;;7.29;100.00;99564.53;5049961;28;20136;-71
2023/12/12 09:49:11;;;;;;;;;;;;;;;7.31;100.00;99562.69;5037419;28;20192;-71
2023/12/12 09:51:42;;;;;;;28.98;7.85;;;;;;;7.37;100.00;99545.75;5047175;28;20118;-71
2023/12/12 09:54:12;;;;;;;30.92;7.43;;;;;;;7.38;100.00;99532.53;5051651;28;20176;-71
2023/12/12 09:56:41;;;;;;;28.15;8.30;;;;;;;7.40;100.00;99528.00;5023439;28;20045;-70
2023/12/12 09:59:09;;;;;;;28.35;8.40;;;;;;;7.47;100.00;99541.75;5030417;28;20053;-70
2023/12/12 10:01:47;;;;;;;30.85;8.10;;;;;;;7.49;100.00;99531.16;5015508;28;20052;-70
2023/12/12 10:04:19;;;;;;;31.23;8.70;;;;;;;7.17;100.00;99474.75;5045385;28;20127;-71
2023/12/12 10:06:53;;;;;;;27.15;8.85;;;;;;;7.56;100.00;99545.72;5028043;28;20051;-69
2023/12/12 10:09:21;;;;;;;25.10;8.45;;;;;;;7.58;100.00;99539.44;5022934;28;20642;-70
2023/12/12 10:11:50;;;;;;;31.45;8.68;;;;;;;7.60;100.00;99534.97;5029320;28;20501;-68
2023/12/12 10:14:36;;;;;;;22.58;8.18;;;;;;;7.66;100.00;99518.00;5025907;28;20053;-69
2023/12/12 10:17:05;;;;;;;24.95;8.57;;;;;;;7.73;100.00;99522.03;5029862;28;20583;-69
2023/12/12 10:19:33;;;;;;;27.70;8.52;;;;;;;7.77;100.00;99513.06;5001928;28;20111;-70
2023/12/12 10:22:06;;;;;;;32.83;9.80;;;;;;;7.83;100.00;99504.84;5030967;28;20132;-71
2023/12/12 10:24:35;;;;;;;29.77;9.18;;;;;;;7.79;100.00;99494.53;5035644;28;20520;-69
2023/12/12 10:27:06;;;;;;;31.40;9.88;;;;;;;7.95;100.00;99508.66;5034045;28;20047;-71
2023/12/12 10:29:34;;;;;;;29.05;10.07;;;;;;;7.94;100.00;99488.50;5021349;28;20112;-69
2023/12/12 10:32:04;;;;;;;30.95;9.77;;;;;;;8.05;100.00;99491.44;5010083;28;20049;-70
2023/12/12 10:34:33;;;;;;;27.98;8.82;;;;;;;8.10;100.00;99485.00;5025200;28;20060;-70
2023/12/12 10:37:02;;;;;;;28.70;8.55;;;;;;;8.15;100.00;99490.06;5031495;28;20049;-70
2023/12/12 10:39:31;;;;;;;28.30;9.48;;;;;;;8.16;100.00;99468.03;5018982;28;20067;-70
2023/12/12 10:41:59;;;;;;;31.98;9.40;;;;;;;8.21;100.00;99451.94;5030141;28;20049;-70
2023/12/12 10:44:32;;;;;;;37.45;10.30;;;;;;;8.35;100.00;99473.19;5013249;28;20044;-73
2023/12/12 10:47:06;;;;;;;26.50;8.98;;;;;;;8.41;100.00;99457.06;5027486;28;20042;-70
2023/12/12 10:49:37;;;;;;;23.90;8.57;;;;;;;8.50;100.00;99461.84;5004614;28;20041;-70
2023/12/12 10:52:07;;;;;;;26.73;8.85;;;;;;;8.58;100.00;99454.38;5028961;28;20042;-70
2023/12/12 10:54:43;;;;;;;29.08;8.55;;;;;;;8.67;100.00;99445.09;5026443;28;20042;-70
2023/12/12 10:57:12;;;;;;;30.80;9.02;;;;;;;8.77;100.00;99436.63;5030125;28;20056;-70
2023/12/12 10:59:42;;;;;;;26.65;7.80;;;;;;;8.90;100.00;99428.00;5019190;28;20052;-71
2023/12/12 11:02:33;;;;;;;26.27;8.52;;;;;;;8.98;100.00;99424.00;5023187;28;20133;-70
2023/12/12 11:05:03;;;;;;;23.30;8.40;;;;;;;9.08;100.00;99435.78;5029659;28;20044;-71
2023/12/12 11:07:34;;;;;;;21.83;7.45;;;;;;;9.11;100.00;99426.81;5025605;28;20064;-71
2023/12/12 11:10:08;;;;;;;28.10;7.53;;;;;;;9.13;100.00;99424.94;5003718;28;20053;-71
2023/12/12 11:12:42;;;;;;;26.92;7.70;;;;;;;9.10;100.00;99411.91;5026474;28;20045;-70
2023/12/12 11:15:14;;;;;;;24.42;7.32;;;;;;;9.17;100.00;99410.63;5009904;28;20049;-69
2023/12/12 11:17:57;;;;;;;23.40;7.57;;;;;;;9.20;100.00;99414.88;5025234;28;20500;-70
2023/12/12 11:20:26;;;;;;;27.88;7.45;;;;;;;9.25;100.00;99405.75;5017398;28;20045;-72
2023/12/12 11:22:55;;;;;;;24.08;7.70;;;;;;;9.23;100.00;99399.72;5023252;28;20052;-73
2023/12/12 11:25:30;;;;;;;23.80;7.05;;;;;;;9.26;100.00;99396.03;5027481;28;20045;-72
2023/12/12 11:27:59;;;;;;;25.23;7.65;;;;;;;9.24;100.00;99375.00;5025084;28;20510;-72
2023/12/12 11:30:30;;;;;;;26.95;8.30;;;;;;;9.37;100.00;99381.28;5016910;28;20055;-72
2023/12/12 11:33:02;;;;;;;29.52;8.50;;;;;;;9.42;100.00;99381.00;5024618;28;20095;-72
2023/12/12 11:35:32;;;;;;;29.00;7.45;;;;;;;9.49;100.00;99369.97;5019581;28;20116;-72
2023/12/12 11:38:04;;;;;;;30.50;7.32;;;;;;;9.57;100.00;99368.69;5023459;28;20479;-71